Portada
METAR-TAF:

METAR-TAF

Aeroports :

Hyakuri, Japó

latitud: 36-11N, longitud: 140-25E, altitud: 32 m

Observació

L'informe es va fer fa 51 minuts, a les 20:00 UTC
Vent 7 kt del Nord/Nord-Est
Temperatura 6°C
Humitat 45%
Pressió 1011 hPa
Visibilitat 10 km o més
Escasses núvols a una alçada de 3000 ft
Cel ennuvolat a una alçada de 4000 ft
Cel ennuvolat a una alçada de 6000 ft

METAR: RJAH 222000Z 03007KT 9999 FEW030 BKN040 BKN060 06/M05 Q1011

Hora: 05:51 (20:51 UTC)

Pronòstic

L'informe es va fer fa 3 hores i 46 minuts, a les 17:05 UTC
Pronòstic vàlid del 22 a les 18 UTC al 24 a les 00 UTC
Vent 5 kt del Nord/Nord-Est
Visibilitat 10 km o més
Escasses núvols a una alçada de 3000 ft
Núvols disperses a una alçada de 4500 ft
Evolucionant progressivament
l' 23 a les 01 UTC al 23 a les 03 UTC
Vent 6 kt del Sud
Evolucionant progressivament
l' 23 a les 06 UTC al 23 a les 09 UTC
Vent 6 kt del Nord

TAF: RJAH 221705Z 2218/2400 02005KT 9999 FEW030 SCT045 BECMG 2301/2303 18006KT BECMG 2306/2309 01006KT

Observacions i pronòstics meteorològics de més de 4000 aeroports (METAR i TAF).

Les estacions disponibles són els punts grocs i vermells al mapa.

Posi el ratolí al punt desitjat per veure el nom de l'estació.

Feu clic per veure les observacions i els pronòstics meteorològics.

Per canviar el mapa: feu clic els botons verds amb una creu de color negre per apropar; al botó verd amb un guió per allunyar la imatge; o en les fletxes verdes per a mapes adjacents.


METAR-TAF: